Time;durP1;ratioP1;P1;durP2;ratioP2;P2;SDS_P1;SDS_P2;PMS_P1;PMS_P2;Temp;Humidity;BMP_temperature;BMP_pressure;BME280_temperature;BME280_humidity;BME280_pressure;Samples;Min_cycle;Max_cycle;Signal;HPM_P1;HPM_P2
2024/02/24 00:00:07;;;;;;;10.95;6.53;;;;;;;9.61;69.76;99406.31;5027215;28;20045;-48
2024/02/24 00:02:33;;;;;;;10.80;6.30;;;;;;;9.66;69.60;99409.72;5029637;28;20057;-48
2024/02/24 00:04:58;;;;;;;12.07;6.40;;;;;;;9.56;69.62;99408.06;5030342;28;20049;-45
2024/02/24 00:07:24;;;;;;;12.38;6.53;;;;;;;9.51;70.00;99408.09;5030152;28;20128;-47
2024/02/24 00:09:49;;;;;;;12.98;6.30;;;;;;;9.51;69.65;99405.50;5029701;28;20037;-45
2024/02/24 00:12:15;;;;;;;11.65;6.07;;;;;;;9.53;69.80;99408.06;5030049;28;20061;-47
2024/02/24 00:14:40;;;;;;;12.52;6.05;;;;;;;9.46;70.22;99404.63;5028804;28;20048;-48
2024/02/24 00:17:05;;;;;;;11.48;6.30;;;;;;;9.49;69.99;99407.25;5029727;28;20044;-48
2024/02/24 00:19:30;;;;;;;12.45;6.28;;;;;;;9.43;69.93;99412.47;5029042;28;20048;-47
2024/02/24 00:21:57;;;;;;;10.65;6.20;;;;;;;9.42;70.30;99409.88;5028364;28;20034;-47
2024/02/24 00:24:22;;;;;;;12.88;5.93;;;;;;;9.48;69.96;99413.31;5029242;28;20112;-45
2024/02/24 00:26:47;;;;;;;11.00;6.25;;;;;;;9.45;70.70;99413.34;5027445;28;20132;-45
2024/02/24 00:29:12;;;;;;;11.55;6.00;;;;;;;9.46;70.75;99411.56;5029155;28;20087;-46
2024/02/24 00:31:38;;;;;;;9.60;6.10;;;;;;;9.43;70.88;99420.28;5028977;28;20047;-46
2024/02/24 00:34:03;;;;;;;10.00;5.60;;;;;;;9.44;71.24;99413.34;5028471;28;20038;-45
2024/02/24 00:36:29;;;;;;;11.57;5.80;;;;;;;9.45;70.58;99421.16;5027983;28;20042;-48
2024/02/24 00:38:54;;;;;;;10.43;5.82;;;;;;;9.47;71.12;99421.13;5028576;28;20065;-50
2024/02/24 00:41:20;;;;;;;10.10;5.47;;;;;;;9.43;70.30;99428.09;5028464;28;20067;-46
2024/02/24 00:43:45;;;;;;;10.68;6.00;;;;;;;9.40;70.57;99422.88;5028193;28;20037;-46
2024/02/24 00:46:10;;;;;;;11.07;5.88;;;;;;;9.32;70.60;99422.06;5030669;28;20034;-48
2024/02/24 00:48:36;;;;;;;11.98;6.20;;;;;;;9.38;70.24;99414.25;5032387;28;20042;-45
2024/02/24 00:51:01;;;;;;;11.60;5.75;;;;;;;9.34;70.12;99415.97;5031272;28;20112;-46
2024/02/24 00:53:27;;;;;;;8.90;5.63;;;;;;;9.23;70.72;99415.16;5032696;28;20029;-47
2024/02/24 00:55:52;;;;;;;9.85;5.45;;;;;;;9.32;70.97;99424.69;5032220;28;20056;-48
2024/02/24 00:58:18;;;;;;;11.38;5.60;;;;;;;9.18;70.97;99427.34;5032482;28;20038;-48
2024/02/24 01:00:43;;;;;;;10.13;5.55;;;;;;;9.36;70.88;99429.84;5031350;28;20037;-49
2024/02/24 01:03:08;;;;;;;10.70;5.90;;;;;;;9.17;71.31;99425.59;5032075;28;20030;-48
2024/02/24 01:05:34;;;;;;;9.05;5.22;;;;;;;9.34;71.06;99425.50;5032144;28;20087;-47
2024/02/24 01:07:59;;;;;;;9.15;5.40;;;;;;;9.19;71.58;99423.00;5031529;28;20033;-50
2024/02/24 01:10:28;;;;;;;11.55;6.28;;;;;;;9.22;71.41;99420.38;5031661;28;20038;-46
2024/02/24 01:12:54;;;;;;;10.50;5.57;;;;;;;9.16;71.25;99418.66;5032016;28;20064;-49
2024/02/24 01:15:19;;;;;;;11.40;5.80;;;;;;;9.33;71.10;99423.81;5032304;28;20084;-46
2024/02/24 01:17:44;;;;;;;11.45;6.20;;;;;;;9.41;70.05;99424.63;5033046;28;20046;-48
2024/02/24 01:20:10;;;;;;;11.88;5.70;;;;;;;9.24;70.74;99424.69;5033918;28;20029;-46
2024/02/24 01:22:35;;;;;;;10.32;5.55;;;;;;;9.28;70.97;99429.00;5031800;28;20124;-48
2024/02/24 01:25:01;;;;;;;11.00;6.03;;;;;;;9.17;71.16;99425.59;5031580;28;20033;-45
2024/02/24 01:27:26;;;;;;;12.50;6.15;;;;;;;9.28;70.65;99429.00;5032152;28;20033;-49
2024/02/24 01:29:51;;;;;;;13.13;6.50;;;;;;;9.05;71.25;99430.84;5031390;28;20388;-45
2024/02/24 01:32:19;;;;;;;11.90;6.30;;;;;;;9.19;70.86;99428.19;5031957;28;20044;-47
2024/02/24 01:34:44;;;;;;;12.52;7.00;;;;;;;9.18;70.52;99432.53;5031247;28;20041;-49
2024/02/24 01:37:10;;;;;;;13.27;6.13;;;;;;;9.28;70.03;99441.16;5013758;28;20064;-48
2024/02/24 01:39:35;;;;;;;13.00;6.45;;;;;;;9.20;70.10;99436.00;5031519;28;20037;-50
2024/02/24 01:42:01;;;;;;;11.65;6.93;;;;;;;9.05;70.61;99449.03;5030854;28;20488;-47
2024/02/24 01:44:26;;;;;;;11.95;6.90;;;;;;;9.14;71.11;99449.03;5031365;28;20033;-47
2024/02/24 01:46:51;;;;;;;12.50;7.20;;;;;;;9.20;70.50;99453.34;5031282;28;20048;-46
2024/02/24 01:49:17;;;;;;;11.75;7.05;;;;;;;9.19;70.55;99451.59;5031878;28;20030;-51
2024/02/24 01:51:44;;;;;;;12.82;7.15;;;;;;;9.17;70.51;99453.31;5028310;28;20045;-45
2024/02/24 01:54:09;;;;;;;12.00;7.15;;;;;;;9.21;70.04;99452.47;5029669;28;20030;-50
2024/02/24 01:56:39;;;;;;;10.93;6.47;;;;;;;9.27;70.25;99452.44;5029477;28;20039;-47
2024/02/24 01:59:05;;;;;;;15.90;7.30;;;;;;;9.22;70.52;99456.78;5030567;28;20034;-48
2024/02/24 02:01:30;;;;;;;13.95;6.97;;;;;;;9.11;71.21;99455.94;5030825;28;20083;-46
2024/02/24 02:03:57;;;;;;;13.10;6.93;;;;;;;9.20;71.10;99451.59;5030625;28;20033;-47
2024/02/24 02:06:24;;;;;;;9.88;6.30;;;;;;;9.36;70.65;99458.47;5030865;28;20488;-48
2024/02/24 02:08:49;;;;;;;13.50;7.47;;;;;;;9.35;70.57;99450.66;5030577;28;20073;-47
2024/02/24 02:11:15;;;;;;;11.98;6.82;;;;;;;9.41;70.44;99452.34;5030488;28;20518;-47
2024/02/24 02:13:40;;;;;;;13.73;7.43;;;;;;;9.14;71.75;99449.03;5030342;28;20072;-47
2024/02/24 02:16:06;;;;;;;13.50;6.88;;;;;;;9.31;71.67;99442.00;5031086;28;20036;-45
2024/02/24 02:18:31;;;;;;;11.25;6.72;;;;;;;9.55;70.70;99448.84;5031282;28;20071;-46
2024/02/24 02:20:58;;;;;;;11.13;6.95;;;;;;;9.65;70.41;99447.91;5030202;28;20381;-48
2024/02/24 02:23:24;;;;;;;13.13;7.10;;;;;;;9.53;70.61;99450.56;5031142;28;20033;-46
2024/02/24 02:25:49;;;;;;;11.95;7.05;;;;;;;9.31;70.92;99452.41;5029563;28;20514;-47
2024/02/24 02:28:14;;;;;;;11.57;6.88;;;;;;;9.52;70.55;99450.56;5031431;28;20037;-48
2024/02/24 02:30:40;;;;;;;12.15;7.10;;;;;;;9.51;69.53;99456.66;5029445;28;20034;-46
2024/02/24 02:33:08;;;;;;;12.15;6.47;;;;;;;9.42;70.47;99461.91;5030865;28;20029;-47
2024/02/24 02:35:33;;;;;;;12.27;6.80;;;;;;;9.52;69.93;99459.25;5030576;28;20037;-50
2024/02/24 02:37:59;;;;;;;12.98;6.40;;;;;;;9.46;69.49;99459.25;5030285;28;20425;-46
2024/02/24 02:40:24;;;;;;;13.80;6.70;;;;;;;9.49;69.50;99464.47;5030249;28;20391;-47
2024/02/24 02:42:49;;;;;;;10.95;6.25;;;;;;;9.46;69.54;99459.25;5029961;28;20037;-48
2024/02/24 02:45:14;;;;;;;10.35;5.95;;;;;;;9.53;69.14;99460.97;5030196;28;20514;-44
2024/02/24 02:47:40;;;;;;;10.15;5.95;;;;;;;9.40;69.01;99455.81;5029670;28;20132;-45
2024/02/24 02:50:07;;;;;;;11.80;6.35;;;;;;;9.33;69.38;99455.84;5029826;28;20148;-49
2024/02/24 02:52:33;;;;;;;12.90;6.20;;;;;;;9.33;69.30;99455.84;5028753;28;20048;-46
2024/02/24 02:54:58;;;;;;;12.82;6.50;;;;;;;9.21;69.68;99453.31;5030064;28;20412;-47
2024/02/24 02:57:23;;;;;;;12.75;6.55;;;;;;;9.04;70.00;99454.22;5030566;28;20037;-45
2024/02/24 02:59:49;;;;;;;13.77;6.78;;;;;;;9.16;69.57;99462.88;5029624;28;20029;-46
2024/02/24 03:02:14;;;;;;;11.52;6.40;;;;;;;9.14;69.27;99450.75;5030396;28;20056;-48
2024/02/24 03:04:40;;;;;;;13.32;7.25;;;;;;;9.04;70.29;99459.44;5029798;28;20037;-45
2024/02/24 03:07:08;;;;;;;15.07;7.32;;;;;;;9.08;70.05;99463.78;5030306;28;20598;-59
2024/02/24 03:09:33;;;;;;;13.38;7.30;;;;;;;9.03;70.62;99458.56;5029738;28;20068;-48
2024/02/24 03:11:59;;;;;;;15.10;7.53;;;;;;;9.01;70.22;99468.13;5029876;28;20123;-47
2024/02/24 03:14:24;;;;;;;14.18;7.53;;;;;;;8.91;71.19;99466.41;5028864;28;20033;-47
2024/02/24 03:16:49;;;;;;;14.90;7.47;;;;;;;9.00;70.64;99468.13;5029870;28;20041;-51
2024/02/24 03:19:15;;;;;;;16.50;7.38;;;;;;;9.03;70.36;99463.75;5030139;28;20037;-50
2024/02/24 03:21:40;;;;;;;15.95;8.35;;;;;;;8.93;69.96;99468.13;5029131;28;20056;-47
2024/02/24 03:24:06;;;;;;;17.33;8.23;;;;;;;8.84;70.86;99464.72;5030815;28;20038;-47
2024/02/24 03:26:31;;;;;;;18.73;8.50;;;;;;;8.80;71.08;99471.63;5030953;28;20064;-48
2024/02/24 03:28:57;;;;;;;19.30;8.82;;;;;;;8.83;71.28;99469.03;5032401;28;20068;-47
2024/02/24 03:31:22;;;;;;;17.98;8.73;;;;;;;8.88;71.33;99471.63;5031423;28;20064;-48
2024/02/24 03:33:47;;;;;;;16.60;9.20;;;;;;;8.90;71.16;99469.91;5031476;28;20148;-45
2024/02/24 03:36:18;;;;;;;17.70;9.07;;;;;;;8.88;71.10;99471.63;5029959;28;20611;-46
2024/02/24 03:38:43;;;;;;;20.02;9.23;;;;;;;8.85;70.63;99476.81;5029340;28;20551;-48
2024/02/24 03:41:09;;;;;;;20.33;9.23;;;;;;;8.83;70.78;99479.44;5028948;28;20033;-45
2024/02/24 03:43:35;;;;;;;17.98;9.13;;;;;;;8.71;71.68;99479.47;5029662;28;20120;-46
2024/02/24 03:46:02;;;;;;;18.23;9.15;;;;;;;8.80;71.31;99462.97;5029071;28;20029;-46
2024/02/24 03:48:28;;;;;;;19.10;9.25;;;;;;;8.77;71.16;99475.97;5029169;28;20034;-50
2024/02/24 03:50:53;;;;;;;24.75;9.70;;;;;;;8.79;71.60;99475.09;5028367;28;20144;-44
2024/02/24 03:53:19;;;;;;;18.15;8.38;;;;;;;8.82;71.30;99472.50;5028262;28;20067;-46
2024/02/24 03:55:44;;;;;;;20.23;8.73;;;;;;;8.70;71.88;99467.31;5028972;28;20030;-47
2024/02/24 03:58:10;;;;;;;20.02;9.00;;;;;;;8.78;71.46;99470.75;5029291;28;20086;-47
2024/02/24 04:00:35;;;;;;;20.35;8.75;;;;;;;8.81;71.26;99478.56;5028701;28;20117;-47
2024/02/24 04:03:01;;;;;;;19.08;9.43;;;;;;;8.75;71.30;99478.56;5027299;28;20025;-49
2024/02/24 04:05:27;;;;;;;19.38;9.27;;;;;;;8.64;72.02;99477.72;5028391;28;20033;-46
2024/02/24 04:07:52;;;;;;;19.95;9.90;;;;;;;8.63;71.88;99477.72;5027654;28;20038;-47
2024/02/24 04:10:18;;;;;;;20.73;10.20;;;;;;;8.70;71.77;99482.03;5028703;28;20036;-48
2024/02/24 04:12:43;;;;;;;18.52;9.40;;;;;;;8.74;71.51;99478.56;5028537;28;20508;-47
2024/02/24 04:15:09;;;;;;;21.73;9.45;;;;;;;8.69;71.68;99481.19;5029269;28;20034;-47
2024/02/24 04:17:34;;;;;;;21.38;9.65;;;;;;;8.63;71.48;99481.19;5029138;28;20033;-47
2024/02/24 04:19:59;;;;;;;19.85;9.90;;;;;;;8.73;70.97;99484.63;5029786;28;20065;-47
2024/02/24 04:22:25;;;;;;;19.40;10.07;;;;;;;8.70;71.09;99482.03;5033072;28;20691;-46
2024/02/24 04:24:51;;;;;;;19.15;9.05;;;;;;;8.68;71.48;99484.63;5032518;28;20033;-47
2024/02/24 04:27:17;;;;;;;24.05;10.45;;;;;;;8.52;72.29;99489.00;5033288;28;20033;-47
2024/02/24 04:29:42;;;;;;;21.60;9.82;;;;;;;8.61;72.14;99498.50;5032612;28;20044;-46
2024/02/24 04:32:07;;;;;;;20.75;10.10;;;;;;;8.63;72.31;99503.69;5032757;28;20033;-47
2024/02/24 04:34:32;;;;;;;19.60;9.82;;;;;;;8.70;71.26;99503.69;5033019;28;20061;-46
2024/02/24 04:36:58;;;;;;;17.42;9.27;;;;;;;8.68;71.39;99510.63;5032456;28;20119;-49
2024/02/24 04:39:23;;;;;;;20.13;10.00;;;;;;;8.61;71.87;99518.41;5032924;28;20037;-46
2024/02/24 04:41:49;;;;;;;20.10;10.13;;;;;;;8.44;72.48;99515.81;5030524;28;20037;-47
2024/02/24 04:44:14;;;;;;;19.15;9.80;;;;;;;8.57;71.87;99527.09;5032656;28;20037;-46
2024/02/24 04:46:39;;;;;;;21.15;10.15;;;;;;;8.49;72.01;99522.75;5031811;28;20034;-46
2024/02/24 04:49:05;;;;;;;22.75;10.95;;;;;;;8.55;71.81;99519.28;5032663;28;20671;-48
2024/02/24 04:51:31;;;;;;;18.88;9.95;;;;;;;8.53;72.12;99515.84;5032198;28;20033;-51
2024/02/24 04:53:56;;;;;;;22.58;10.68;;;;;;;8.54;72.46;99517.53;5031917;28;20045;-45
2024/02/24 04:56:22;;;;;;;20.85;9.95;;;;;;;8.61;72.35;99521.00;5032396;28;20042;-48
2024/02/24 04:58:47;;;;;;;24.45;11.18;;;;;;;8.55;72.26;99519.28;5031908;28;20036;-51
2024/02/24 05:01:16;;;;;;;20.27;10.20;;;;;;;8.55;72.26;99509.75;5031928;28;20033;-51
2024/02/24 05:03:41;;;;;;;22.10;10.93;;;;;;;8.61;72.51;99519.28;5032075;28;20091;-46
2024/02/24 05:06:08;;;;;;;22.13;10.93;;;;;;;8.49;73.02;99520.16;5032259;28;20486;-45
2024/02/24 05:08:34;;;;;;;23.63;11.07;;;;;;;8.57;72.68;99514.97;5032897;28;20132;-46
2024/02/24 05:11:00;;;;;;;21.80;11.20;;;;;;;8.57;72.64;99520.16;5031227;28;20175;-48
2024/02/24 05:13:25;;;;;;;23.27;11.07;;;;;;;8.65;72.95;99518.44;5030543;28;20034;-45
2024/02/24 05:15:51;;;;;;;23.30;11.73;;;;;;;8.68;73.08;99515.81;5031527;28;20041;-45
2024/02/24 05:18:17;;;;;;;24.35;11.50;;;;;;;8.79;72.65;99521.88;5032011;28;20030;-46
2024/02/24 05:20:42;;;;;;;20.13;11.00;;;;;;;8.67;73.86;99521.88;5031116;28;20381;-45
2024/02/24 05:23:07;;;;;;;25.70;12.32;;;;;;;8.81;72.86;99521.88;5031888;28;20038;-48
2024/02/24 05:25:34;;;;;;;25.13;11.82;;;;;;;8.67;73.15;99524.47;5031997;28;20041;-47
2024/02/24 05:27:59;;;;;;;21.60;11.27;;;;;;;8.71;73.26;99530.56;5031555;28;20029;-47
2024/02/24 05:30:25;;;;;;;21.58;11.20;;;;;;;8.75;73.18;99534.88;5032819;28;20052;-45
2024/02/24 05:32:50;;;;;;;22.83;11.15;;;;;;;8.68;72.53;99536.59;5032354;28;20065;-49
2024/02/24 05:35:15;;;;;;;22.55;11.48;;;;;;;8.62;72.90;99547.00;5033305;28;20033;-47
2024/02/24 05:37:41;;;;;;;22.00;11.35;;;;;;;8.62;73.08;99538.34;5031739;28;20124;-45
2024/02/24 05:40:07;;;;;;;21.35;11.05;;;;;;;8.65;72.34;99546.13;5031881;28;20484;-46
2024/02/24 05:42:32;;;;;;;21.80;11.32;;;;;;;8.58;73.11;99547.88;5033241;28;20057;-49
2024/02/24 05:44:58;;;;;;;23.05;11.35;;;;;;;8.60;73.12;99559.09;5032915;28;20029;-45
2024/02/24 05:47:23;;;;;;;22.35;11.57;;;;;;;8.56;73.29;99559.97;5033306;28;20037;-49
2024/02/24 05:49:48;;;;;;;23.95;11.90;;;;;;;8.77;73.54;99566.94;5032239;28;20128;-44
2024/02/24 05:52:16;;;;;;;24.98;11.98;;;;;;;8.86;74.06;99566.91;5031764;28;20048;-46
2024/02/24 05:54:41;;;;;;;24.30;11.85;;;;;;;8.92;73.94;99572.97;5030934;28;20496;-49
2024/02/24 05:57:07;;;;;;;22.40;11.95;;;;;;;8.98;73.44;99569.50;5031668;28;20087;-45
2024/02/24 05:59:34;;;;;;;23.33;12.38;;;;;;;8.80;73.50;99572.97;5031577;28;20033;-46
2024/02/24 06:02:00;;;;;;;24.52;11.73;;;;;;;8.74;74.35;99572.97;5031066;28;20419;-47
2024/02/24 06:04:25;;;;;;;24.77;12.48;;;;;;;8.82;73.13;99576.44;5031730;28;20112;-48
2024/02/24 06:06:51;;;;;;;23.27;11.45;;;;;;;8.91;73.26;99588.56;5030248;28;20049;-46
2024/02/24 06:09:16;;;;;;;22.00;11.48;;;;;;;8.87;73.34;99587.69;5031933;28;20037;-48
2024/02/24 06:11:41;;;;;;;23.75;11.98;;;;;;;8.96;72.89;99589.44;5031940;28;20052;-46
2024/02/24 06:14:07;;;;;;;22.58;11.52;;;;;;;8.92;73.14;99588.56;5036130;28;20136;-45
2024/02/24 06:16:32;;;;;;;25.55;12.45;;;;;;;8.91;73.30;99586.81;5031075;28;20521;-46
2024/02/24 06:18:58;;;;;;;23.30;12.00;;;;;;;8.94;73.11;99585.97;5030505;28;20520;-45
2024/02/24 06:21:23;;;;;;;23.95;12.75;;;;;;;8.93;73.27;99598.09;5028521;28;20075;-43
2024/02/24 06:23:49;;;;;;;23.92;12.00;;;;;;;8.91;72.90;99599.81;5029885;28;20036;-44
2024/02/24 06:26:14;;;;;;;24.33;12.82;;;;;;;8.91;72.78;99599.81;5030811;28;20451;-50
2024/02/24 06:28:41;;;;;;;22.77;12.20;;;;;;;8.84;72.96;99598.09;5030273;28;20033;-46
2024/02/24 06:31:06;;;;;;;24.58;12.43;;;;;;;8.83;72.80;99595.50;5030474;28;20072;-50
2024/02/24 06:33:31;;;;;;;24.23;12.90;;;;;;;8.83;72.55;99601.56;5030977;28;20449;-45
2024/02/24 06:35:57;;;;;;;26.02;12.85;;;;;;;8.78;73.08;99605.88;5030578;28;20120;-48
2024/02/24 06:38:22;;;;;;;24.30;12.93;;;;;;;8.80;73.02;99605.88;5031073;28;20034;-47
2024/02/24 06:40:47;;;;;;;24.20;13.15;;;;;;;8.86;72.91;99609.34;5029826;28;20526;-46
2024/02/24 06:43:14;;;;;;;25.38;12.55;;;;;;;8.84;73.24;99612.84;5030843;28;20045;-44
2024/02/24 06:45:39;;;;;;;24.27;12.43;;;;;;;8.85;72.91;99623.22;5030523;28;20042;-48
2024/02/24 06:48:04;;;;;;;24.02;12.60;;;;;;;8.80;72.73;99616.28;5030103;28;20037;-46
2024/02/24 06:50:30;;;;;;;24.40;13.13;;;;;;;8.76;73.50;99627.56;5029641;28;20042;-46
2024/02/24 06:52:56;;;;;;;27.48;12.90;;;;;;;8.82;72.51;99630.16;5029990;28;20160;-49
2024/02/24 06:55:21;;;;;;;22.35;12.88;;;;;;;8.75;72.91;99636.22;5030362;28;20504;-45
2024/02/24 06:57:48;;;;;;;25.40;13.52;;;;;;;8.72;73.27;99631.03;5029613;28;20060;-46
2024/02/24 07:00:13;;;;;;;23.52;12.32;;;;;;;8.80;73.28;99631.88;5029487;28;20025;-48
2024/02/24 07:02:39;;;;;;;23.48;12.88;;;;;;;8.81;73.21;99634.47;5030027;28;20122;-48
2024/02/24 07:05:08;;;;;;;21.65;11.68;;;;;;;8.78;73.31;99638.81;5029847;28;20492;-44
2024/02/24 07:07:35;;;;;;;23.10;12.52;;;;;;;8.76;73.42;99644.00;5030298;28;20051;-45
2024/02/24 07:10:00;;;;;;;21.58;12.18;;;;;;;8.90;73.19;99644.88;5030674;28;20605;-48
2024/02/24 07:12:25;;;;;;;21.48;11.43;;;;;;;8.90;73.61;99650.06;5030498;28;20037;-49
2024/02/24 07:14:52;;;;;;;23.98;12.50;;;;;;;9.02;73.36;99656.16;5029849;28;20670;-47
2024/02/24 07:17:17;;;;;;;23.55;11.77;;;;;;;9.00;73.76;99658.75;5030325;28;20068;-44
2024/02/24 07:19:43;;;;;;;20.25;11.50;;;;;;;9.03;73.56;99663.94;5029476;28;20044;-48
2024/02/24 07:22:08;;;;;;;23.60;12.20;;;;;;;9.05;74.10;99663.94;5029644;28;20427;-46
2024/02/24 07:24:33;;;;;;;22.48;11.23;;;;;;;9.19;73.81;99668.28;5031365;28;20427;-45
2024/02/24 07:26:58;;;;;;;20.48;11.57;;;;;;;9.28;73.74;99664.78;5031696;28;20042;-50
2024/02/24 07:29:24;;;;;;;27.35;11.45;;;;;;;9.39;73.68;99672.63;5031659;28;20048;-45
2024/02/24 07:31:49;;;;;;;25.15;12.10;;;;;;;9.35;73.99;99669.13;5030285;28;20037;-46
2024/02/24 07:34:14;;;;;;;19.70;11.20;;;;;;;9.46;73.66;99666.50;5029890;28;20527;-46
2024/02/24 07:36:40;;;;;;;22.38;11.15;;;;;;;9.49;73.37;99676.94;5029165;28;20045;-47
2024/02/24 07:39:05;;;;;;;20.63;11.10;;;;;;;9.56;73.45;99682.13;5029459;28;20025;-48
2024/02/24 07:41:30;;;;;;;23.00;11.70;;;;;;;9.52;73.49;99680.38;5029286;28;20057;-47
2024/02/24 07:43:56;;;;;;;19.58;11.32;;;;;;;9.67;74.08;99682.09;5029298;28;20057;-46
2024/02/24 07:46:31;;;;;;;20.80;11.18;;;;;;;9.91;74.34;99689.84;5029463;28;20178;-47
2024/02/24 07:48:57;;;;;;;21.17;12.05;;;;;;;10.02;73.44;99695.88;5029034;28;20030;-46
2024/02/24 07:51:23;;;;;;;20.25;11.15;;;;;;;10.20;72.81;99696.72;5028897;28;20444;-47
2024/02/24 07:53:48;;;;;;;22.95;12.10;;;;;;;10.30;73.50;99698.44;5029045;28;20117;-47
2024/02/24 07:56:14;;;;;;;21.88;11.95;;;;;;;10.65;72.86;99703.47;5035690;28;20068;-49
2024/02/24 07:58:39;;;;;;;22.13;11.98;;;;;;;10.68;70.74;99704.28;5036764;28;20033;-46
2024/02/24 08:01:04;;;;;;;19.20;10.95;;;;;;;10.60;69.93;99706.09;5032455;28;20033;-46
2024/02/24 08:03:31;;;;;;;18.63;10.93;;;;;;;10.74;69.82;99700.78;5033408;28;20446;-49
2024/02/24 08:05:56;;;;;;;18.17;10.13;;;;;;;10.84;68.87;99708.56;5031984;28;20685;-46
2024/02/24 08:08:21;;;;;;;19.48;10.27;;;;;;;10.49;68.44;99716.56;5033647;28;20046;-45
2024/02/24 08:10:47;;;;;;;18.42;9.57;;;;;;;10.46;68.91;99713.97;5032625;28;20045;-46
2024/02/24 08:13:12;;;;;;;17.58;9.70;;;;;;;10.72;67.79;99715.59;5033791;28;20026;-47
2024/02/24 08:15:37;;;;;;;16.65;8.90;;;;;;;10.66;67.92;99724.31;5033153;28;20111;-46
2024/02/24 08:18:03;;;;;;;17.70;9.45;;;;;;;10.54;68.58;99717.44;5032787;28;20033;-50
2024/02/24 08:20:28;;;;;;;16.00;9.18;;;;;;;10.70;67.79;99719.94;5032507;28;20045;-45
2024/02/24 08:22:53;;;;;;;16.17;8.90;;;;;;;10.81;67.54;99718.13;5032551;28;20033;-48
2024/02/24 08:25:19;;;;;;;16.45;9.25;;;;;;;10.72;67.25;99721.66;5033189;28;20412;-49
2024/02/24 08:27:44;;;;;;;16.02;9.35;;;;;;;10.19;67.73;99727.09;5033096;28;20033;-47
2024/02/24 08:30:10;;;;;;;14.82;9.07;;;;;;;10.66;67.52;99728.66;5032836;28;20033;-49
2024/02/24 08:32:35;;;;;;;17.73;9.35;;;;;;;10.81;66.82;99731.16;5032807;28;20144;-48
2024/02/24 08:35:00;;;;;;;15.40;8.77;;;;;;;10.43;67.49;99732.22;5032470;28;20459;-46
2024/02/24 08:37:26;;;;;;;15.13;8.88;;;;;;;10.79;66.30;99728.59;5032910;28;20500;-48
2024/02/24 08:39:51;;;;;;;14.15;8.60;;;;;;;10.89;66.09;99726.78;5033080;28;20420;-46
2024/02/24 08:42:16;;;;;;;16.15;9.25;;;;;;;10.83;65.43;99738.13;5033038;28;20167;-46
2024/02/24 08:44:41;;;;;;;13.32;8.25;;;;;;;10.75;65.91;99726.84;5032287;28;20061;-46
2024/02/24 08:47:07;;;;;;;14.52;8.63;;;;;;;10.33;67.53;99735.75;5033176;28;20029;-50
2024/02/24 08:49:32;;;;;;;15.65;9.05;;;;;;;10.49;66.72;99739.16;5035123;28;20037;-49
2024/02/24 08:51:58;;;;;;;17.50;9.80;;;;;;;10.42;66.67;99740.94;5031790;28;20068;-46
2024/02/24 08:54:23;;;;;;;18.73;9.82;;;;;;;10.57;66.43;99738.25;5031451;28;20514;-47
2024/02/24 08:56:48;;;;;;;17.73;8.80;;;;;;;10.33;66.94;99742.69;5032072;28;20091;-48
2024/02/24 08:59:14;;;;;;;17.35;9.32;;;;;;;10.39;67.10;99753.09;5032650;28;20543;-46
2024/02/24 09:01:39;;;;;;;17.00;9.13;;;;;;;10.31;67.33;99749.63;5032242;28;20037;-48
2024/02/24 09:04:05;;;;;;;15.55;9.15;;;;;;;10.38;66.83;99747.00;5031039;28;20029;-47
2024/02/24 09:06:35;;;;;;;14.93;9.43;;;;;;;10.20;67.47;99757.50;5032955;28;20061;-46
2024/02/24 09:09:01;;;;;;;16.92;9.82;;;;;;;10.30;67.25;99759.22;5033375;28;20116;-46
2024/02/24 09:11:26;;;;;;;17.75;9.70;;;;;;;10.25;67.73;99760.94;5032087;28;20473;-45
2024/02/24 09:13:52;;;;;;;16.35;9.45;;;;;;;9.85;68.42;99767.97;5031963;28;20041;-48
2024/02/24 09:16:17;;;;;;;16.77;9.80;;;;;;;10.36;66.99;99761.81;5032522;28;20057;-47
2024/02/24 09:18:42;;;;;;;17.95;9.52;;;;;;;10.41;66.98;99769.59;5032061;28;20163;-44
2024/02/24 09:21:09;;;;;;;17.38;9.57;;;;;;;10.46;66.33;99770.44;5032232;28;20112;-47
2024/02/24 09:23:34;;;;;;;14.88;9.10;;;;;;;10.37;66.40;99773.09;5033217;28;20049;-47
2024/02/24 09:25:59;;;;;;;15.88;8.95;;;;;;;10.12;67.55;99775.69;5031458;28;20029;-53
2024/02/24 09:28:25;;;;;;;15.20;8.82;;;;;;;10.39;66.40;99780.00;5031742;28;20535;-48
2024/02/24 09:30:51;;;;;;;14.38;8.82;;;;;;;10.13;66.37;99777.44;5030994;28;20045;-46
2024/02/24 09:33:16;;;;;;;13.23;8.25;;;;;;;10.40;66.24;99784.34;5031516;28;20037;-47
2024/02/24 09:35:42;;;;;;;13.45;7.68;;;;;;;10.18;66.49;99787.03;5030962;28;20045;-49
2024/02/24 09:38:07;;;;;;;13.70;7.85;;;;;;;10.54;66.01;99790.41;5031768;28;20546;-47
2024/02/24 09:40:33;;;;;;;14.85;7.47;;;;;;;10.20;66.78;99793.94;5031115;28;20045;-47
2024/02/24 09:43:05;;;;;;;13.50;7.35;;;;;;;10.14;67.03;99786.13;5030824;28;20122;-47
2024/02/24 09:45:35;;;;;;;14.20;7.40;;;;;;;10.25;66.80;99794.81;5031492;28;20065;-47
2024/02/24 09:48:04;;;;;;;11.77;7.00;;;;;;;10.30;66.68;99800.91;5030956;28;20035;-47
2024/02/24 09:50:29;;;;;;;12.48;6.53;;;;;;;10.31;66.91;99793.91;5030933;28;20043;-47
2024/02/24 09:52:54;;;;;;;12.68;7.30;;;;;;;10.01;67.34;99806.09;5030854;28;20418;-46
2024/02/24 09:55:20;;;;;;;11.75;6.88;;;;;;;10.23;66.03;99808.72;5031499;28;20037;-44
2024/02/24 09:57:45;;;;;;;11.70;6.78;;;;;;;10.32;66.23;99813.88;5030678;28;20038;-47
2024/02/24 10:00:11;;;;;;;10.07;6.10;;;;;;;10.21;66.24;99808.72;5030644;28;20021;-51
2024/02/24 10:02:37;;;;;;;12.30;6.10;;;;;;;10.41;65.29;99809.53;5031187;28;20570;-45
2024/02/24 10:05:03;;;;;;;9.27;5.05;;;;;;;10.16;65.18;99811.34;5030600;28;20037;-48
2024/02/24 10:07:30;;;;;;;10.80;5.88;;;;;;;10.09;63.89;99822.59;5031013;28;20080;-45
2024/02/24 10:09:55;;;;;;;10.43;4.60;;;;;;;10.24;64.37;99820.88;5030604;28;20033;-46
2024/02/24 10:12:21;;;;;;;8.93;4.75;;;;;;;10.75;62.54;99823.31;5030509;28;20041;-46
2024/02/24 10:14:46;;;;;;;7.68;4.60;;;;;;;10.97;61.95;99816.28;5029477;28;20556;-49
2024/02/24 10:17:13;;;;;;;7.97;4.20;;;;;;;10.90;61.16;99818.03;5030330;28;20435;-46
2024/02/24 10:19:39;;;;;;;7.25;4.20;;;;;;;10.92;60.66;99813.66;5030599;28;20037;-50
2024/02/24 10:22:04;;;;;;;6.38;3.80;;;;;;;11.20;60.43;99832.66;5030319;28;20121;-49
2024/02/24 10:24:30;;;;;;;7.18;3.97;;;;;;;11.15;59.88;99823.13;5030770;28;20132;-47
2024/02/24 10:26:56;;;;;;;11.65;3.80;;;;;;;10.88;59.16;99835.41;5030441;28;20040;-45
2024/02/24 10:29:27;;;;;;;5.68;3.50;;;;;;;10.97;59.15;99834.53;5030561;28;20559;-50
2024/02/24 10:31:52;;;;;;;8.00;3.75;;;;;;;10.52;60.50;99843.38;5029638;28;20046;-47
2024/02/24 10:34:18;;;;;;;6.43;4.13;;;;;;;10.36;61.46;99837.34;5030549;28;20197;-47
2024/02/24 10:36:45;;;;;;;7.97;4.25;;;;;;;10.27;60.42;99850.38;5030269;28;20041;-47
2024/02/24 10:39:12;;;;;;;7.40;4.13;;;;;;;10.49;59.91;99846.00;5030667;28;20045;-51
2024/02/24 10:41:40;;;;;;;8.05;4.45;;;;;;;10.49;59.65;99846.00;5030027;28;20068;-47
2024/02/24 10:44:06;;;;;;;9.23;4.63;;;;;;;10.27;60.42;99855.59;5028511;28;20056;-50
2024/02/24 10:46:32;;;;;;;8.27;4.60;;;;;;;10.49;59.49;99859.88;5030590;28;20037;-48
2024/02/24 10:48:57;;;;;;;7.18;4.32;;;;;;;10.24;59.88;99858.22;5030002;28;20026;-49
2024/02/24 10:51:23;;;;;;;8.30;4.00;;;;;;;9.85;60.89;99859.06;5029667;28;20124;-48
2024/02/24 10:53:55;;;;;;;7.03;4.25;;;;;;;10.37;60.58;99862.50;5028778;28;20072;-48
2024/02/24 10:56:21;;;;;;;8.35;4.20;;;;;;;10.72;59.43;99866.78;5032134;28;20036;-44
2024/02/24 10:58:47;;;;;;;8.07;4.68;;;;;;;10.70;59.50;99871.13;5031296;28;20037;-48
2024/02/24 11:01:12;;;;;;;10.52;5.20;;;;;;;10.63;60.71;99870.28;5030759;28;20022;-48
2024/02/24 11:03:38;;;;;;;10.70;5.38;;;;;;;10.50;61.17;99874.66;5031018;28;20069;-52
2024/02/24 11:06:05;;;;;;;10.38;5.00;;;;;;;10.83;60.69;99878.91;5029960;28;20076;-47
2024/02/24 11:08:34;;;;;;;10.80;5.38;;;;;;;10.80;60.71;99884.13;5032474;28;20038;-48
2024/02/24 11:11:14;;;;;;;10.05;5.57;;;;;;;10.70;61.39;99887.63;5031357;28;20046;-48
2024/02/24 11:13:46;;;;;;;12.00;5.65;;;;;;;11.15;60.36;99891.81;5032832;28;20053;-47
2024/02/24 11:16:11;;;;;;;8.18;4.82;;;;;;;10.70;61.54;99891.97;5031792;28;20032;-46
2024/02/24 11:18:49;;;;;;;10.27;5.20;;;;;;;11.12;60.45;99884.00;5031957;28;20037;-46
2024/02/24 11:21:15;;;;;;;8.45;4.65;;;;;;;10.55;61.56;99891.13;5029462;28;20041;-47